Time;durP1;ratioP1;P1;durP2;ratioP2;P2;SDS_P1;SDS_P2;PMS_P1;PMS_P2;Temp;Humidity;BMP_temperature;BMP_pressure;BME280_temperature;BME280_humidity;BME280_pressure;Samples;Min_cycle;Max_cycle;Signal;HPM_P1;HPM_P2
2024/03/27 00:02:55;;;;;;;4.43;2.45;;;;;;;8.39;53.58;97106.94;10465867;28;20135;-62
2024/03/27 00:07:59;;;;;;;5.55;2.53;;;;;;;8.43;53.68;97103.91;10432678;28;20044;-62
2024/03/27 00:13:00;;;;;;;8.07;3.55;;;;;;;8.47;53.65;97091.41;10432292;28;20063;-62
2024/03/27 00:18:01;;;;;;;5.50;2.65;;;;;;;8.38;53.86;97089.72;10432103;28;20041;-62
2024/03/27 00:23:02;;;;;;;8.10;2.85;;;;;;;8.32;54.01;97101.53;10415298;28;20048;-63
2024/03/27 00:28:03;;;;;;;4.00;2.25;;;;;;;8.33;54.00;97087.53;10415079;28;20052;-62
2024/03/27 00:33:04;;;;;;;4.20;2.22;;;;;;;8.35;54.28;97093.41;10430644;28;20057;-62
2024/03/27 00:38:05;;;;;;;6.45;3.50;;;;;;;8.37;54.21;97085.44;10431828;28;20049;-62
2024/03/27 00:43:06;;;;;;;5.13;2.17;;;;;;;8.32;54.30;97095.50;10430782;28;20051;-63
2024/03/27 00:48:07;;;;;;;4.45;2.25;;;;;;;8.26;54.37;97086.47;10429985;28;20052;-63
2024/03/27 00:53:08;;;;;;;4.20;2.17;;;;;;;8.18;54.57;97085.59;10414826;28;20045;-62
2024/03/27 00:58:09;;;;;;;3.63;1.70;;;;;;;8.15;54.54;97078.06;10431218;28;20044;-62
2024/03/27 01:03:10;;;;;;;3.50;1.77;;;;;;;8.08;54.61;97072.56;10433306;28;20068;-62
2024/03/27 01:08:11;;;;;;;7.32;2.20;;;;;;;7.98;54.74;97064.81;10439683;28;20048;-62
2024/03/27 01:13:17;;;;;;;4.13;2.08;;;;;;;7.87;54.91;97065.03;10416486;28;20566;-62
2024/03/27 01:18:18;;;;;;;4.20;2.53;;;;;;;7.77;55.20;97066.03;10439071;28;20049;-63
2024/03/27 01:23:19;;;;;;;6.90;2.75;;;;;;;7.59;55.31;97050.34;10439178;28;20056;-62
2024/03/27 01:28:21;;;;;;;3.13;1.80;;;;;;;7.40;55.60;97040.03;10422639;28;20052;-63
2024/03/27 01:33:22;;;;;;;4.45;2.00;;;;;;;7.33;55.78;97038.13;10422074;28;20049;-62
2024/03/27 01:38:23;;;;;;;3.17;1.85;;;;;;;7.27;55.86;97029.09;10438175;28;20272;-62
2024/03/27 01:43:24;;;;;;;3.70;1.77;;;;;;;7.18;56.07;97009.19;10421775;28;20076;-63
2024/03/27 01:48:25;;;;;;;4.18;1.83;;;;;;;6.96;56.65;97019.88;10420984;28;20049;-62
2024/03/27 01:53:27;;;;;;;3.90;2.03;;;;;;;6.92;56.72;97018.50;10421218;28;20049;-62
2024/03/27 01:58:30;;;;;;;4.97;2.08;;;;;;;6.88;56.79;97037.94;10437365;28;20037;-63
2024/03/27 02:03:31;;;;;;;2.95;1.63;;;;;;;6.81;56.93;97019.50;10417486;28;20047;-62
2024/03/27 02:08:32;;;;;;;3.20;1.60;;;;;;;6.80;57.05;97024.81;10436433;28;20052;-63
2024/03/27 02:13:33;;;;;;;2.97;1.40;;;;;;;6.76;57.19;97019.09;10418691;28;20061;-63
2024/03/27 02:18:34;;;;;;;8.73;2.22;;;;;;;6.72;57.33;97015.13;10432179;28;20107;-63
2024/03/27 02:24:08;;;;;;;3.15;1.80;;;;;;;6.67;58.23;97008.72;10436166;28;20053;-63
2024/03/27 02:29:10;;;;;;;3.78;1.77;;;;;;;6.57;57.54;97028.69;10438012;28;20055;-63
2024/03/27 02:34:10;;;;;;;3.28;1.90;;;;;;;6.42;57.64;97030.88;10419997;28;20102;-63
2024/03/27 02:39:11;;;;;;;5.88;2.13;;;;;;;6.27;57.73;97025.25;10419754;28;20527;-63
2024/03/27 02:44:13;;;;;;;3.22;1.70;;;;;;;6.17;58.13;96995.84;10435604;28;20064;-63
2024/03/27 02:49:13;;;;;;;3.45;1.88;;;;;;;6.20;58.07;96984.38;10434999;28;20468;-63
2024/03/27 02:54:14;;;;;;;2.95;1.80;;;;;;;6.18;58.09;97002.69;10435265;28;20099;-63
2024/03/27 02:59:15;;;;;;;2.72;1.50;;;;;;;6.11;58.32;97004.16;10435103;28;20060;-63
2024/03/27 03:04:16;;;;;;;4.10;1.52;;;;;;;6.07;58.42;96992.44;10418306;28;20118;-63
2024/03/27 03:09:18;;;;;;;3.45;1.60;;;;;;;6.02;58.31;96986.00;10434529;28;20413;-63
2024/03/27 03:14:20;;;;;;;3.58;1.70;;;;;;;5.94;58.73;97002.22;10433966;28;20843;-63
2024/03/27 03:19:22;;;;;;;3.00;1.73;;;;;;;5.89;58.63;97004.41;10417973;28;20041;-63
2024/03/27 03:24:22;;;;;;;2.17;1.40;;;;;;;5.77;58.60;97008.06;10434261;28;20500;-63
2024/03/27 03:29:23;;;;;;;2.28;1.45;;;;;;;5.64;59.03;96997.09;10433340;28;20052;-63
2024/03/27 03:34:24;;;;;;;2.58;1.40;;;;;;;5.60;59.38;96980.19;10434297;28;20064;-63
2024/03/27 03:39:25;;;;;;;5.00;2.05;;;;;;;5.62;59.17;96972.25;10434026;28;20045;-63
2024/03/27 03:44:26;;;;;;;2.17;1.40;;;;;;;5.43;59.52;96978.25;10395501;28;20493;-64
2024/03/27 03:49:27;;;;;;;2.53;1.42;;;;;;;5.28;59.52;96946.69;10416678;28;20079;-63
2024/03/27 03:54:28;;;;;;;3.03;1.80;;;;;;;5.19;59.55;96960.41;10432877;28;20041;-63
2024/03/27 03:59:29;;;;;;;2.67;1.48;;;;;;;5.21;59.55;96965.44;10432506;28;20049;-63
2024/03/27 04:04:30;;;;;;;3.00;1.70;;;;;;;5.19;59.63;96952.63;10432288;28;20048;-63
2024/03/27 04:09:31;;;;;;;3.33;1.60;;;;;;;4.97;59.63;96933.84;10432802;28;20037;-63
2024/03/27 04:14:32;;;;;;;6.13;2.05;;;;;;;4.90;60.17;96925.81;10431089;28;20052;-63
2024/03/27 04:19:33;;;;;;;3.15;1.80;;;;;;;4.87;60.00;96933.00;10414313;28;20067;-62
2024/03/27 04:24:34;;;;;;;2.63;1.50;;;;;;;4.95;60.06;96948.69;10432068;28;20048;-62
2024/03/27 04:29:35;;;;;;;3.95;1.58;;;;;;;5.05;59.97;96976.28;10415105;28;20358;-63
2024/03/27 04:34:36;;;;;;;2.03;1.50;;;;;;;5.21;59.91;96976.63;10415581;28;20036;-62
2024/03/27 04:39:37;;;;;;;6.85;1.70;;;;;;;5.32;59.74;96971.38;10429934;28;20542;-62
2024/03/27 04:44:38;;;;;;;4.38;1.88;;;;;;;5.43;59.66;96973.06;10429605;28;20033;-62
2024/03/27 04:49:39;;;;;;;3.72;1.77;;;;;;;5.24;59.58;96957.44;10431211;28;20041;-62
2024/03/27 04:54:40;;;;;;;2.47;1.40;;;;;;;5.25;59.97;96966.81;10398672;28;20416;-62
2024/03/27 04:59:42;;;;;;;3.75;1.50;;;;;;;5.37;59.88;96955.44;10414982;28;20094;-62
2024/03/27 05:04:43;;;;;;;5.78;1.85;;;;;;;5.45;59.88;96979.72;10431449;28;20653;-62
2024/03/27 05:09:44;;;;;;;4.38;1.63;;;;;;;5.48;59.83;97002.78;10431518;28;20045;-62
2024/03/27 05:14:45;;;;;;;3.72;2.00;;;;;;;5.49;59.65;97008.81;10413674;28;20048;-62
2024/03/27 05:19:49;;;;;;;2.58;1.75;;;;;;;5.53;59.72;96990.25;10414288;28;20450;-62
2024/03/27 05:24:50;;;;;;;2.63;1.52;;;;;;;5.64;59.45;96984.16;10414749;28;20607;-62
2024/03/27 05:29:51;;;;;;;2.90;1.70;;;;;;;5.70;59.42;96985.38;10429830;28;20094;-63
2024/03/27 05:34:52;;;;;;;3.47;2.08;;;;;;;5.78;59.39;97004.50;10430855;28;20039;-63
2024/03/27 05:39:53;;;;;;;3.33;1.48;;;;;;;5.82;59.16;97000.69;10429733;28;20049;-63
2024/03/27 05:44:54;;;;;;;2.53;1.52;;;;;;;5.85;59.21;97000.44;10430761;28;20044;-63
2024/03/27 05:49:55;;;;;;;3.47;1.58;;;;;;;5.98;59.25;97005.41;10430927;28;20038;-63
2024/03/27 05:54:56;;;;;;;3.58;1.95;;;;;;;6.17;58.95;97001.03;10421579;28;20255;-64
2024/03/27 05:59:57;;;;;;;2.15;1.50;;;;;;;6.38;58.73;97005.31;10436706;28;20382;-63
2024/03/27 06:04:58;;;;;;;2.58;1.60;;;;;;;6.52;58.68;97008.31;10420170;28;20045;-63
2024/03/27 06:09:59;;;;;;;3.13;1.70;;;;;;;6.64;58.48;97020.19;10429818;28;20033;-63
2024/03/27 06:15:00;;;;;;;3.75;1.88;;;;;;;6.63;58.35;97028.97;10434888;28;20056;-63
2024/03/27 06:20:01;;;;;;;2.55;1.50;;;;;;;6.79;58.39;97031.00;10433025;28;20515;-64
2024/03/27 06:25:02;;;;;;;3.17;1.88;;;;;;;7.00;58.24;97029.03;10436149;28;20093;-63
2024/03/27 06:30:03;;;;;;;3.85;1.60;;;;;;;7.14;57.86;97018.22;10417051;28;20516;-63
2024/03/27 06:35:05;;;;;;;2.55;1.48;;;;;;;7.30;57.66;97000.25;10416990;28;20045;-60
2024/03/27 06:40:09;;;;;;;4.85;1.83;;;;;;;7.47;57.35;96983.88;10384390;28;20076;-61
2024/03/27 06:45:10;;;;;;;2.47;1.60;;;;;;;7.67;57.14;96976.81;10433768;28;20425;-60
2024/03/27 06:50:11;;;;;;;4.30;1.90;;;;;;;7.82;56.84;96999.59;10414825;28;20041;-60
2024/03/27 06:55:12;;;;;;;3.15;1.88;;;;;;;7.82;56.82;96996.97;10465903;28;20041;-60
2024/03/27 07:00:14;;;;;;;3.53;1.80;;;;;;;7.78;56.55;96990.44;10415881;28;20045;-59
2024/03/27 07:05:17;;;;;;;3.20;2.00;;;;;;;7.87;56.48;97005.19;10433913;28;20053;-58
2024/03/27 07:10:18;;;;;;;3.40;1.60;;;;;;;8.07;56.44;96997.25;10417162;28;20068;-59
2024/03/27 07:15:19;;;;;;;3.55;1.80;;;;;;;8.22;55.91;97001.81;10433405;28;20081;-59
2024/03/27 07:20:20;;;;;;;3.17;1.77;;;;;;;8.31;55.68;96993.13;10418022;28;20063;-59
2024/03/27 07:25:21;;;;;;;2.83;1.60;;;;;;;8.43;55.77;96986.72;10417621;28;20098;-59
2024/03/27 07:30:22;;;;;;;9.27;2.33;;;;;;;8.60;55.44;96967.66;10433316;28;20060;-60
2024/03/27 07:35:23;;;;;;;3.63;1.75;;;;;;;8.86;55.01;96970.28;10433116;28;21101;-59
2024/03/27 07:40:26;;;;;;;5.20;2.10;;;;;;;8.96;54.86;96973.63;10433979;28;20043;-59
2024/03/27 07:45:27;;;;;;;3.08;1.90;;;;;;;9.06;54.90;96950.88;10432594;28;20658;-59
2024/03/27 07:50:28;;;;;;;3.97;2.25;;;;;;;9.35;54.55;96953.97;10415768;28;20048;-58
2024/03/27 07:55:29;;;;;;;2.45;1.55;;;;;;;9.48;54.40;96966.56;10432416;28;20077;-59
2024/03/27 08:00:30;;;;;;;3.22;1.80;;;;;;;9.60;54.37;96955.72;10415322;28;20505;-59
2024/03/27 08:05:31;;;;;;;3.70;1.88;;;;;;;9.80;53.95;96961.50;10448908;28;20055;-59
2024/03/27 08:10:32;;;;;;;4.55;2.00;;;;;;;9.81;53.67;96964.94;10432297;28;20551;-59
2024/03/27 08:15:38;;;;;;;3.13;1.70;;;;;;;10.03;53.32;96965.16;10407089;28;20053;-59
2024/03/27 08:20:39;;;;;;;2.78;1.70;;;;;;;10.06;53.33;96951.78;10431581;28;20413;-59
2024/03/27 08:25:40;;;;;;;5.60;2.03;;;;;;;9.98;53.38;96962.19;10431826;28;20052;-59
2024/03/27 08:30:44;;;;;;;4.75;1.95;;;;;;;9.99;53.32;96960.41;10429448;28;20094;-59
2024/03/27 08:35:45;;;;;;;3.17;1.90;;;;;;;10.02;52.88;96971.34;10430082;28;20052;-59
2024/03/27 08:40:52;;;;;;;3.15;1.88;;;;;;;10.23;52.75;96963.06;10431286;28;20041;-59
2024/03/27 08:45:53;;;;;;;6.18;1.80;;;;;;;10.40;52.70;96954.25;10413237;28;20241;-59
2024/03/27 08:50:54;;;;;;;3.58;1.85;;;;;;;10.48;52.21;96946.44;10429624;28;20049;-59
2024/03/27 08:55:55;;;;;;;3.70;1.90;;;;;;;10.69;51.63;96959.00;10430123;28;20232;-59
2024/03/27 09:00:56;;;;;;;4.75;2.35;;;;;;;10.77;51.64;96972.88;10431042;28;20148;-59
2024/03/27 09:05:58;;;;;;;3.85;2.00;;;;;;;10.86;51.31;96986.78;10428933;28;20052;-59
2024/03/27 09:11:01;;;;;;;4.15;2.30;;;;;;;10.94;51.36;96973.69;10410552;28;20057;-59
2024/03/27 09:16:03;;;;;;;6.45;2.45;;;;;;;11.07;51.06;96979.28;10426725;28;20052;-59
2024/03/27 09:21:04;;;;;;;5.03;2.17;;;;;;;10.94;50.63;96986.75;10424152;28;20044;-59
2024/03/27 09:26:06;;;;;;;3.88;2.00;;;;;;;10.87;50.85;96981.38;10426907;28;20052;-59
2024/03/27 09:31:07;;;;;;;3.05;2.05;;;;;;;10.87;50.57;96978.75;10435117;28;20037;-59
2024/03/27 09:36:12;;;;;;;5.32;2.15;;;;;;;10.88;50.12;96975.16;10419661;28;20231;-59
2024/03/27 09:41:14;;;;;;;3.45;1.80;;;;;;;11.02;49.57;96982.34;10420911;28;20499;-59
2024/03/27 09:46:15;;;;;;;3.10;1.88;;;;;;;11.24;49.61;96984.28;10437793;28;20564;-59
2024/03/27 09:51:16;;;;;;;3.65;1.95;;;;;;;11.48;49.31;96980.78;10437284;28;20055;-59
2024/03/27 09:56:17;;;;;;;2.78;1.70;;;;;;;11.84;49.30;96968.06;10419424;28;20775;-59
2024/03/27 10:01:18;;;;;;;1.73;1.35;;;;;;;11.91;49.17;96964.56;10437900;28;20091;-60
2024/03/27 10:06:21;;;;;;;3.75;1.80;;;;;;;12.27;48.84;96958.81;10437187;28;20386;-59
2024/03/27 10:11:24;;;;;;;3.28;1.90;;;;;;;12.85;48.59;96953.78;10436192;28;20045;-60
2024/03/27 10:16:25;;;;;;;2.42;1.52;;;;;;;13.03;48.35;96951.63;10435975;28;20045;-59
2024/03/27 10:21:27;;;;;;;2.58;1.42;;;;;;;13.29;48.07;96951.22;10432704;28;20061;-59
2024/03/27 10:26:30;;;;;;;5.55;1.50;;;;;;;13.08;48.79;96953.75;10416138;28;20041;-59
2024/03/27 10:31:31;;;;;;;3.95;1.80;;;;;;;13.68;48.50;96949.16;10416876;28;20043;-59
2024/03/27 10:36:34;;;;;;;2.13;1.40;;;;;;;14.10;48.11;96956.31;10432874;28;20190;-60
2024/03/27 10:41:36;;;;;;;2.30;1.38;;;;;;;14.33;47.99;96967.50;10432812;28;20064;-59
2024/03/27 10:46:40;;;;;;;2.92;1.52;;;;;;;14.38;47.90;96968.56;10413232;28;20045;-59
2024/03/27 10:51:42;;;;;;;1.05;0.95;;;;;;;14.30;48.04;96971.31;10412643;28;20037;-59
2024/03/27 10:56:43;;;;;;;1.73;1.00;;;;;;;14.22;48.13;96976.69;10425116;28;20589;-59
2024/03/27 11:01:44;;;;;;;2.33;1.20;;;;;;;14.22;48.11;96984.56;10427067;28;20049;-60
2024/03/27 11:06:47;;;;;;;1.23;1.00;;;;;;;14.11;48.31;96973.72;10433960;28;20061;-59
2024/03/27 11:11:48;;;;;;;1.05;0.95;;;;;;;13.94;48.51;96982.81;10434349;28;20052;-59
2024/03/27 11:16:59;;;;;;;1.42;1.05;;;;;;;14.10;48.22;96987.84;10429590;28;20041;-59
2024/03/27 11:22:07;;;;;;;1.48;1.00;;;;;;;14.29;47.68;96990.69;10427339;28;20037;-59
2024/03/27 11:27:08;;;;;;;1.50;1.10;;;;;;;14.51;47.88;97000.25;10429396;28;20512;-59
2024/03/27 11:32:09;;;;;;;0.70;0.70;;;;;;;14.52;46.88;97008.97;10428663;28;20049;-59
2024/03/27 11:37:11;;;;;;;1.17;0.70;;;;;;;14.52;47.23;97012.44;10429177;28;20057;-59
2024/03/27 11:42:15;;;;;;;1.90;1.30;;;;;;;14.11;46.30;97013.94;10414094;28;20053;-59
2024/03/27 11:47:17;;;;;;;1.95;1.20;;;;;;;14.05;46.07;96998.09;10396298;28;20051;-59
2024/03/27 11:52:18;;;;;;;1.75;1.10;;;;;;;14.09;47.03;97018.56;10428265;28;20049;-59
2024/03/27 11:57:20;;;;;;;1.58;1.10;;;;;;;14.38;46.99;97002.75;10429686;28;20053;-59
2024/03/27 12:02:21;;;;;;;1.15;0.90;;;;;;;14.39;46.69;97009.63;10428739;28;20128;-60
2024/03/27 12:07:22;;;;;;;1.30;1.00;;;;;;;14.46;46.68;97021.03;10428562;28;20413;-59
2024/03/27 12:12:27;;;;;;;1.05;0.90;;;;;;;14.64;45.93;97028.53;10428524;28;20077;-59
2024/03/27 12:17:36;;;;;;;0.98;0.88;;;;;;;14.52;46.58;97033.47;10428027;28;20049;-59
2024/03/27 12:22:37;;;;;;;1.17;0.95;;;;;;;14.84;46.07;97021.63;10424862;28;20394;-59
2024/03/27 12:27:39;;;;;;;1.65;1.13;;;;;;;14.87;46.24;96997.59;10427795;28;20063;-59
2024/03/27 12:32:40;;;;;;;18.75;7.57;;;;;;;15.07;45.60;97018.78;10427373;28;20064;-59
2024/03/27 12:37:41;;;;;;;4.70;1.70;;;;;;;14.92;45.95;97036.50;10427518;28;20041;-60
2024/03/27 12:42:42;;;;;;;1.80;1.30;;;;;;;14.49;46.24;97038.28;10428140;28;20459;-59
2024/03/27 12:47:44;;;;;;;1.65;1.20;;;;;;;14.53;45.77;97042.19;10427549;28;20099;-59
2024/03/27 12:52:45;;;;;;;2.08;1.00;;;;;;;14.81;45.61;97043.06;10410494;28;20149;-59
2024/03/27 12:57:49;;;;;;;1.45;0.98;;;;;;;15.03;45.46;97054.41;10410112;28;20041;-59
2024/03/27 13:02:50;;;;;;;1.92;1.00;;;;;;;15.08;45.46;97052.03;10433794;28;20064;-59
2024/03/27 13:07:51;;;;;;;1.65;1.00;;;;;;;15.04;44.64;97056.84;10402450;28;20057;-59
2024/03/27 13:12:53;;;;;;;1.08;0.88;;;;;;;14.93;45.36;97072.31;10418362;28;20114;-59
2024/03/27 13:17:54;;;;;;;1.30;0.77;;;;;;;14.83;45.66;97087.59;10434241;28;20390;-59
2024/03/27 13:22:55;;;;;;;0.55;0.50;;;;;;;14.58;45.43;97081.88;10415717;28;20041;-60
2024/03/27 13:27:57;;;;;;;0.65;0.65;;;;;;;14.40;46.04;97090.13;10432569;28;20417;-60
2024/03/27 13:33:01;;;;;;;0.82;0.80;;;;;;;14.17;46.27;97097.31;10413661;28;20584;-59
2024/03/27 13:38:03;;;;;;;2.50;1.70;;;;;;;13.81;46.20;97106.09;10411183;28;20412;-59
2024/03/27 13:43:04;;;;;;;0.75;0.75;;;;;;;13.81;46.57;97112.19;10431642;28;20043;-60
2024/03/27 13:48:05;;;;;;;0.50;0.50;;;;;;;13.74;46.55;97108.63;10432151;28;20178;-59
2024/03/27 13:53:06;;;;;;;0.73;0.57;;;;;;;13.36;46.58;97109.63;10428386;28;20092;-59
2024/03/27 13:58:07;;;;;;;3.50;0.90;;;;;;;13.59;46.69;97115.69;10433137;28;20045;-59
2024/03/27 14:03:08;;;;;;;0.50;0.50;;;;;;;13.70;46.47;97105.56;10416154;28;20151;-60
2024/03/27 14:08:09;;;;;;;0.45;0.45;;;;;;;13.29;46.74;97124.47;10415844;28;20049;-60
2024/03/27 14:13:11;;;;;;;0.55;0.55;;;;;;;13.42;47.04;97122.03;10430661;28;20045;-60
2024/03/27 14:18:12;;;;;;;0.75;0.75;;;;;;;13.67;46.76;97115.59;10412779;28;20053;-59
2024/03/27 14:23:13;;;;;;;0.40;0.40;;;;;;;13.56;47.00;97129.16;10432247;28;20045;-60
2024/03/27 14:28:15;;;;;;;0.50;0.50;;;;;;;13.45;47.03;97142.72;10432839;28;20049;-59
2024/03/27 14:33:16;;;;;;;0.47;0.47;;;;;;;13.42;47.33;97138.63;10432108;28;20045;-59
2024/03/27 14:38:16;;;;;;;0.85;0.47;;;;;;;13.39;47.27;97165.19;10415310;28;20049;-59
2024/03/27 14:43:18;;;;;;;0.70;0.52;;;;;;;13.32;47.25;97166.09;10430760;28;20052;-59
2024/03/27 14:48:18;;;;;;;0.60;0.50;;;;;;;12.70;47.80;97186.31;10414933;28;20395;-59
2024/03/27 14:53:20;;;;;;;0.40;0.40;;;;;;;12.70;47.92;97189.75;10429928;28;20048;-59
2024/03/27 14:58:22;;;;;;;0.40;0.40;;;;;;;12.57;48.09;97205.22;10430720;28;20061;-59
2024/03/27 15:03:23;;;;;;;0.63;0.40;;;;;;;12.39;48.35;97212.50;10430775;28;20444;-59
2024/03/27 15:08:24;;;;;;;0.40;0.40;;;;;;;11.93;49.12;97213.19;10430674;28;20090;-59
2024/03/27 15:13:25;;;;;;;0.40;0.40;;;;;;;11.80;49.29;97229.44;10428287;28;20052;-59
2024/03/27 15:18:26;;;;;;;0.40;0.40;;;;;;;11.65;49.60;97230.22;10397512;28;20663;-60
2024/03/27 15:23:27;;;;;;;0.25;0.25;;;;;;;11.36;50.04;97215.00;10429878;28;20041;-60
2024/03/27 15:28:28;;;;;;;0.40;0.40;;;;;;;11.25;50.36;97223.19;10426538;28;20052;-60
2024/03/27 15:33:29;;;;;;;0.30;0.30;;;;;;;11.04;50.52;97251.56;10410395;28;20141;-60
2024/03/27 15:38:30;;;;;;;0.40;0.40;;;;;;;10.94;50.47;97241.22;10410079;28;20045;-60
2024/03/27 15:43:31;;;;;;;0.47;0.47;;;;;;;10.79;50.65;97265.50;10423753;28;20044;-60
2024/03/27 15:48:32;;;;;;;0.60;0.60;;;;;;;10.62;51.00;97267.25;10424981;28;20040;-60
2024/03/27 15:53:33;;;;;;;0.63;0.60;;;;;;;10.41;51.40;97264.19;10424419;28;20048;-60
2024/03/27 15:58:36;;;;;;;0.55;0.55;;;;;;;10.42;51.10;97263.19;10407339;28;20053;-60
2024/03/27 16:03:37;;;;;;;0.52;0.52;;;;;;;10.63;51.04;97258.41;10409785;28;20060;-60
2024/03/27 16:08:38;;;;;;;1.48;1.00;;;;;;;10.54;51.13;97277.66;10428201;28;20045;-60
2024/03/27 16:13:39;;;;;;;0.50;0.50;;;;;;;10.34;51.28;97281.44;10427216;28;20181;-60
2024/03/27 16:18:39;;;;;;;1.58;1.15;;;;;;;10.30;51.34;97287.94;10409055;28;20775;-60
2024/03/27 16:23:40;;;;;;;0.82;0.70;;;;;;;10.09;52.18;97287.50;10411132;28;20052;-60
2024/03/27 16:28:41;;;;;;;0.50;0.50;;;;;;;10.05;51.98;97288.78;10412694;28;20052;-60
2024/03/27 16:33:42;;;;;;;0.90;0.77;;;;;;;9.97;52.35;97286.09;10414615;28;20111;-60
2024/03/27 16:38:44;;;;;;;0.98;0.82;;;;;;;9.95;52.32;97299.28;10415918;28;20037;-60
2024/03/27 16:43:45;;;;;;;0.93;0.70;;;;;;;10.05;52.36;97299.22;10431544;28;20037;-60
2024/03/27 16:48:46;;;;;;;1.42;1.00;;;;;;;9.74;53.38;97292.75;10431635;28;20049;-60
2024/03/27 16:53:47;;;;;;;0.68;0.68;;;;;;;9.82;52.97;97292.81;10411430;28;20044;-60
2024/03/27 16:58:47;;;;;;;0.60;0.57;;;;;;;9.81;52.95;97293.81;10430258;28;20442;-60
2024/03/27 17:03:48;;;;;;;0.63;0.63;;;;;;;9.85;52.90;97289.94;10430844;28;20121;-60
2024/03/27 17:08:49;;;;;;;1.05;0.70;;;;;;;9.94;52.71;97295.06;10414277;28;20796;-59
2024/03/27 17:13:50;;;;;;;0.55;0.55;;;;;;;10.00;52.92;97297.06;10408413;28;20060;-60
2024/03/27 17:18:51;;;;;;;0.80;0.60;;;;;;;9.99;52.73;97315.50;10424536;28;20087;-59
2024/03/27 17:23:52;;;;;;;0.60;0.60;;;;;;;9.92;52.82;97314.44;10427890;28;20456;-60
2024/03/27 17:28:54;;;;;;;1.38;1.08;;;;;;;10.08;52.88;97319.78;10416806;28;20067;-60
2024/03/27 17:33:55;;;;;;;0.95;0.80;;;;;;;10.10;52.87;97312.63;10421489;28;20045;-60
2024/03/27 17:38:58;;;;;;;0.38;0.35;;;;;;;9.96;52.86;97310.56;10422057;28;20045;-59
2024/03/27 17:43:59;;;;;;;1.73;1.17;;;;;;;10.04;52.82;97313.22;10402788;28;20041;-60
2024/03/27 17:49:00;;;;;;;0.70;0.70;;;;;;;10.07;52.94;97302.50;10431152;28;20622;-60
2024/03/27 17:54:01;;;;;;;1.40;0.80;;;;;;;10.06;53.03;97317.34;10429092;28;20074;-60
2024/03/27 17:59:04;;;;;;;0.88;0.73;;;;;;;10.08;53.51;97309.34;10424526;28;20082;-60
2024/03/27 18:04:06;;;;;;;0.93;0.73;;;;;;;10.16;53.96;97305.00;10431580;28;20416;-60
2024/03/27 18:09:09;;;;;;;0.70;0.70;;;;;;;10.18;54.15;97310.06;10429834;28;20047;-60
2024/03/27 18:14:13;;;;;;;2.22;1.02;;;;;;;10.19;54.41;97302.09;10434966;28;20084;-60
2024/03/27 18:19:15;;;;;;;0.70;0.70;;;;;;;9.95;54.27;97294.06;10432781;28;20128;-60
2024/03/27 18:24:17;;;;;;;0.90;0.77;;;;;;;9.84;55.07;97302.16;10428769;28;20087;-60
2024/03/27 18:29:18;;;;;;;1.33;0.95;;;;;;;9.96;55.23;97316.59;10447870;28;20064;-60
2024/03/27 18:34:19;;;;;;;2.65;1.55;;;;;;;9.97;55.22;97310.41;10435410;28;20445;-60
2024/03/27 18:39:20;;;;;;;1.98;1.00;;;;;;;9.98;55.65;97306.84;10431981;28;20049;-60
2024/03/27 18:44:22;;;;;;;1.95;1.35;;;;;;;9.99;55.95;97298.00;10431364;28;20532;-60
2024/03/27 18:49:24;;;;;;;0.90;0.90;;;;;;;9.96;56.10;97289.66;10428054;28;20156;-59
2024/03/27 18:54:25;;;;;;;1.00;0.90;;;;;;;9.94;56.21;97281.16;10412668;28;20362;-59
2024/03/27 18:59:26;;;;;;;0.63;0.63;;;;;;;9.87;56.07;97275.72;10429901;28;20685;-59
2024/03/27 19:04:27;;;;;;;1.90;1.00;;;;;;;9.80;56.24;97271.28;10432183;28;20044;-59
2024/03/27 19:09:28;;;;;;;3.25;1.33;;;;;;;9.73;56.47;97284.09;10428215;28;20041;-58
2024/03/27 19:14:29;;;;;;;5.57;1.95;;;;;;;9.73;56.43;97283.31;10432076;28;20092;-58
2024/03/27 19:19:30;;;;;;;3.92;1.67;;;;;;;9.67;56.44;97274.25;10444927;28;20497;-59
2024/03/27 19:24:31;;;;;;;3.45;1.63;;;;;;;9.63;56.43;97278.94;10427135;28;20037;-59
2024/03/27 19:29:32;;;;;;;3.60;2.03;;;;;;;9.61;56.50;97274.81;10407078;28;20049;-58
2024/03/27 19:34:34;;;;;;;2.35;1.40;;;;;;;9.55;56.65;97284.09;10423029;28;20519;-59
2024/03/27 19:39:35;;;;;;;2.63;1.30;;;;;;;9.55;56.56;97283.25;10430551;28;20041;-59
2024/03/27 19:44:36;;;;;;;2.13;1.42;;;;;;;9.48;56.60;97293.47;10416158;28;20033;-58
2024/03/27 19:49:37;;;;;;;2.60;1.60;;;;;;;9.41;56.78;97294.22;10429009;28;20048;-59
2024/03/27 19:54:38;;;;;;;4.88;1.65;;;;;;;9.38;56.96;97297.94;10428338;28;20040;-58
2024/03/27 19:59:39;;;;;;;4.28;2.00;;;;;;;9.36;57.09;97302.47;10414947;28;20492;-59
2024/03/27 20:04:40;;;;;;;3.03;1.90;;;;;;;9.37;57.28;97313.72;10428264;28;20052;-59
2024/03/27 20:09:42;;;;;;;1.52;1.00;;;;;;;9.32;57.05;97313.38;10426835;28;20037;-59
2024/03/27 20:14:46;;;;;;;3.65;1.15;;;;;;;9.19;57.17;97315.50;10429763;28;20141;-59
2024/03/27 20:19:47;;;;;;;1.73;0.93;;;;;;;9.05;57.19;97318.59;10427268;28;20251;-59
2024/03/27 20:24:48;;;;;;;1.38;0.98;;;;;;;8.92;57.42;97308.50;10428420;28;20045;-60
2024/03/27 20:29:50;;;;;;;1.48;1.08;;;;;;;9.01;57.68;97314.63;10430837;28;20400;-59
2024/03/27 20:34:51;;;;;;;3.00;0.95;;;;;;;9.11;57.31;97300.59;10424395;28;20049;-59
2024/03/27 20:39:52;;;;;;;1.63;1.10;;;;;;;8.97;57.02;97300.25;10407838;28;21125;-59
2024/03/27 20:44:53;;;;;;;3.00;1.50;;;;;;;8.86;57.40;97303.88;10424698;28;20543;-59
2024/03/27 20:49:54;;;;;;;2.55;1.50;;;;;;;8.94;57.22;97287.50;10407379;28;20657;-59
2024/03/27 20:54:55;;;;;;;3.13;1.70;;;;;;;8.85;56.93;97281.41;10427974;28;20063;-59
2024/03/27 20:59:56;;;;;;;4.47;2.05;;;;;;;8.77;57.39;97269.06;10463226;28;20041;-59
2024/03/27 21:04:57;;;;;;;4.00;2.40;;;;;;;8.87;57.43;97263.00;10407732;28;20051;-59
2024/03/27 21:10:00;;;;;;;4.45;2.38;;;;;;;8.89;57.55;97261.06;10423776;28;20056;-58
2024/03/27 21:15:01;;;;;;;3.20;1.98;;;;;;;8.93;57.28;97258.03;10421455;28;20092;-58
2024/03/27 21:20:05;;;;;;;4.05;2.17;;;;;;;8.88;57.60;97255.03;10429429;28;20056;-58
2024/03/27 21:25:06;;;;;;;2.38;1.77;;;;;;;8.87;57.80;97258.63;10431479;28;20041;-59
2024/03/27 21:30:07;;;;;;;3.45;1.73;;;;;;;8.89;57.68;97259.28;10419328;28;20041;-59
2024/03/27 21:35:08;;;;;;;2.78;1.83;;;;;;;8.88;57.71;97257.63;10431261;28;20533;-59
2024/03/27 21:40:10;;;;;;;3.05;1.50;;;;;;;8.88;57.70;97259.41;10433099;28;20048;-59
2024/03/27 21:45:11;;;;;;;2.30;1.48;;;;;;;8.85;57.68;97250.91;10432051;28;20119;-58
2024/03/27 21:50:12;;;;;;;2.22;1.58;;;;;;;8.79;57.73;97250.72;10430716;28;20048;-59
2024/03/27 21:55:13;;;;;;;2.72;1.48;;;;;;;8.78;57.62;97243.84;10431783;28;20123;-59
2024/03/27 22:00:15;;;;;;;2.83;1.60;;;;;;;8.77;57.63;97252.63;10433682;28;20164;-59
2024/03/27 22:05:17;;;;;;;2.83;1.50;;;;;;;8.72;57.54;97249.63;10432422;28;20098;-59
2024/03/27 22:10:18;;;;;;;2.75;1.40;;;;;;;8.66;57.60;97245.00;10436389;28;20111;-59
2024/03/27 22:15:19;;;;;;;2.13;1.20;;;;;;;8.60;57.53;97240.38;10435387;28;20048;-59
2024/03/27 22:20:20;;;;;;;2.33;1.27;;;;;;;8.57;57.26;97240.63;10433268;28;20059;-59
2024/03/27 22:25:21;;;;;;;2.08;1.20;;;;;;;8.46;57.31;97225.22;10435332;28;20049;-59
2024/03/27 22:30:23;;;;;;;2.20;1.35;;;;;;;8.42;57.48;97216.88;10432856;28;20041;-60
2024/03/27 22:35:28;;;;;;;2.63;1.30;;;;;;;8.43;57.71;97238.50;10412668;28;20045;-59
2024/03/27 22:40:29;;;;;;;2.67;1.33;;;;;;;8.40;57.61;97213.59;10399094;28;20049;-59
2024/03/27 22:45:35;;;;;;;2.40;1.33;;;;;;;8.30;57.67;97196.38;10414569;28;20524;-59
2024/03/27 22:50:36;;;;;;;2.20;1.10;;;;;;;8.16;57.46;97208.06;10423948;28;20045;-60
2024/03/27 22:55:37;;;;;;;1.90;1.58;;;;;;;8.15;57.78;97210.81;10426474;28;20037;-60
2024/03/27 23:00:38;;;;;;;1.73;1.30;;;;;;;8.20;57.71;97201.59;10429703;28;20052;-59
2024/03/27 23:05:39;;;;;;;1.92;1.30;;;;;;;8.24;57.56;97194.34;10430472;28;20156;-59
2024/03/27 23:10:40;;;;;;;2.08;1.40;;;;;;;8.22;57.52;97186.66;10415369;28;21019;-59
2024/03/27 23:15:42;;;;;;;2.25;1.30;;;;;;;8.25;57.60;97211.59;10411313;28;20040;-59
2024/03/27 23:20:43;;;;;;;2.42;1.40;;;;;;;8.26;57.48;97221.84;10428461;28;20508;-59
2024/03/27 23:25:44;;;;;;;2.90;1.50;;;;;;;8.31;57.55;97229.25;10431611;28;20793;-59
2024/03/27 23:30:45;;;;;;;3.35;1.67;;;;;;;8.30;57.37;97222.41;10408218;28;20079;-60